sensor_id;sensor_type;location;lat;lon;timestamp;pressure;altitude;pressure_sealevel;temperature;humidity
21817;BME280;13247;47.504;7.382;2024-03-08T00:02:00;97038.41;;;3.28;100.00
21817;BME280;13247;47.504;7.382;2024-03-08T00:04:45;97042.66;;;3.38;100.00
21817;BME280;13247;47.504;7.382;2024-03-08T00:07:30;97045.88;;;3.64;100.00
21817;BME280;13247;47.504;7.382;2024-03-08T00:10:15;97032.81;;;3.76;100.00
21817;BME280;13247;47.504;7.382;2024-03-08T00:13:01;97032.25;;;3.44;100.00
21817;BME280;13247;47.504;7.382;2024-03-08T00:15:48;97032.88;;;3.69;100.00
21817;BME280;13247;47.504;7.382;2024-03-08T00:18:33;97026.31;;;3.33;100.00
21817;BME280;13247;47.504;7.382;2024-03-08T00:21:17;97028.88;;;3.33;100.00
21817;BME280;13247;47.504;7.382;2024-03-08T00:24:02;97032.31;;;3.35;100.00
21817;BME280;13247;47.504;7.382;2024-03-08T00:26:47;97044.41;;;3.35;100.00
21817;BME280;13247;47.504;7.382;2024-03-08T00:29:32;97030.69;;;3.25;100.00
21817;BME280;13247;47.504;7.382;2024-03-08T00:32:17;97031.63;;;3.10;100.00
21817;BME280;13247;47.504;7.382;2024-03-08T00:35:02;97039.59;;;2.85;100.00
21817;BME280;13247;47.504;7.382;2024-03-08T00:37:47;97036.13;;;2.86;100.00
21817;BME280;13247;47.504;7.382;2024-03-08T00:40:32;97029.84;;;3.17;100.00
21817;BME280;13247;47.504;7.382;2024-03-08T00:43:16;97028.25;;;3.04;100.00
21817;BME280;13247;47.504;7.382;2024-03-08T00:46:01;97028.28;;;2.96;100.00
21817;BME280;13247;47.504;7.382;2024-03-08T00:48:45;97024.03;;;2.88;100.00
21817;BME280;13247;47.504;7.382;2024-03-08T00:51:31;97019.72;;;2.88;100.00
21817;BME280;13247;47.504;7.382;2024-03-08T00:54:16;97009.38;;;2.88;100.00
21817;BME280;13247;47.504;7.382;2024-03-08T00:57:00;97015.56;;;2.65;100.00
21817;BME280;13247;47.504;7.382;2024-03-08T00:59:47;97018.19;;;2.56;100.00
21817;BME280;13247;47.504;7.382;2024-03-08T01:02:32;97007.91;;;2.47;100.00
21817;BME280;13247;47.504;7.382;2024-03-08T01:05:20;97005.34;;;2.34;100.00
21817;BME280;13247;47.504;7.382;2024-03-08T01:08:05;97006.13;;;2.58;100.00
21817;BME280;13247;47.504;7.382;2024-03-08T01:10:49;97000.06;;;2.57;100.00
21817;BME280;13247;47.504;7.382;2024-03-08T01:13:36;96999.22;;;2.60;100.00
21817;BME280;13247;47.504;7.382;2024-03-08T01:16:21;96988.78;;;2.72;100.00
21817;BME280;13247;47.504;7.382;2024-03-08T01:19:06;96987.88;;;2.76;100.00
21817;BME280;13247;47.504;7.382;2024-03-08T01:21:50;96982.78;;;2.61;100.00
21817;BME280;13247;47.504;7.382;2024-03-08T01:24:36;96984.56;;;2.57;100.00
21817;BME280;13247;47.504;7.382;2024-03-08T01:27:21;96978.63;;;2.38;100.00
21817;BME280;13247;47.504;7.382;2024-03-08T01:30:06;96987.31;;;2.25;100.00
21817;BME280;13247;47.504;7.382;2024-03-08T01:32:51;96980.47;;;2.08;100.00
21817;BME280;13247;47.504;7.382;2024-03-08T01:35:35;96983.94;;;2.05;100.00
21817;BME280;13247;47.504;7.382;2024-03-08T01:38:20;96981.28;;;2.28;100.00
21817;BME280;13247;47.504;7.382;2024-03-08T01:41:08;96978.69;;;2.22;100.00
21817;BME280;13247;47.504;7.382;2024-03-08T01:43:53;96974.38;;;2.25;100.00
21817;BME280;13247;47.504;7.382;2024-03-08T01:46:38;96969.97;;;2.41;100.00
21817;BME280;13247;47.504;7.382;2024-03-08T01:49:24;96966.47;;;2.50;100.00
21817;BME280;13247;47.504;7.382;2024-03-08T01:52:10;96960.44;;;2.51;100.00
21817;BME280;13247;47.504;7.382;2024-03-08T01:54:55;96950.16;;;2.37;100.00
21817;BME280;13247;47.504;7.382;2024-03-08T01:57:40;96941.56;;;2.30;100.00
21817;BME280;13247;47.504;7.382;2024-03-08T02:00:27;96935.50;;;2.37;100.00
21817;BME280;13247;47.504;7.382;2024-03-08T02:03:15;96930.28;;;2.44;100.00
21817;BME280;13247;47.504;7.382;2024-03-08T02:06:00;96928.63;;;2.30;100.00
21817;BME280;13247;47.504;7.382;2024-03-08T02:08:45;96932.19;;;2.14;100.00
21817;BME280;13247;47.504;7.382;2024-03-08T02:11:30;96926.97;;;2.20;100.00
21817;BME280;13247;47.504;7.382;2024-03-08T02:14:14;96917.44;;;2.31;100.00
21817;BME280;13247;47.504;7.382;2024-03-08T02:17:02;96911.44;;;2.25;100.00
21817;BME280;13247;47.504;7.382;2024-03-08T02:19:47;96908.78;;;2.38;100.00
21817;BME280;13247;47.504;7.382;2024-03-08T02:22:32;96902.69;;;2.47;100.00
21817;BME280;13247;47.504;7.382;2024-03-08T02:25:17;96901.03;;;2.38;100.00
21817;BME280;13247;47.504;7.382;2024-03-08T02:28:02;96894.09;;;2.42;100.00
21817;BME280;13247;47.504;7.382;2024-03-08T02:30:48;96898.53;;;2.20;100.00
21817;BME280;13247;47.504;7.382;2024-03-08T02:33:33;96896.94;;;1.98;100.00
21817;BME280;13247;47.504;7.382;2024-03-08T02:36:18;96897.88;;;1.78;100.00
21817;BME280;13247;47.504;7.382;2024-03-08T02:39:03;96894.41;;;1.85;100.00
21817;BME280;13247;47.504;7.382;2024-03-08T02:41:48;96894.47;;;1.71;100.00
21817;BME280;13247;47.504;7.382;2024-03-08T02:44:33;96898.75;;;1.78;100.00
21817;BME280;13247;47.504;7.382;2024-03-08T02:47:20;96890.97;;;1.84;100.00
21817;BME280;13247;47.504;7.382;2024-03-08T02:50:05;96887.53;;;1.78;100.00
21817;BME280;13247;47.504;7.382;2024-03-08T02:52:52;96888.41;;;1.86;100.00
21817;BME280;13247;47.504;7.382;2024-03-08T02:55:38;96884.97;;;1.81;100.00
21817;BME280;13247;47.504;7.382;2024-03-08T02:58:23;96882.44;;;1.73;100.00
21817;BME280;13247;47.504;7.382;2024-03-08T03:01:08;96879.84;;;1.67;100.00
21817;BME280;13247;47.504;7.382;2024-03-08T03:03:53;96882.38;;;1.78;100.00
21817;BME280;13247;47.504;7.382;2024-03-08T03:06:38;96876.34;;;1.80;100.00
21817;BME280;13247;47.504;7.382;2024-03-08T03:09:22;96874.59;;;1.85;100.00
21817;BME280;13247;47.504;7.382;2024-03-08T03:12:11;96868.59;;;1.83;100.00
21817;BME280;13247;47.504;7.382;2024-03-08T03:14:57;96874.59;;;1.82;100.00
21817;BME280;13247;47.504;7.382;2024-03-08T03:17:45;96870.34;;;1.72;100.00
21817;BME280;13247;47.504;7.382;2024-03-08T03:20:30;96877.28;;;1.64;100.00
21817;BME280;13247;47.504;7.382;2024-03-08T03:23:21;96866.81;;;1.88;100.00
21817;BME280;13247;47.504;7.382;2024-03-08T03:26:08;96864.22;;;1.88;100.00
21817;BME280;13247;47.504;7.382;2024-03-08T03:28:53;96863.41;;;1.80;100.00
21817;BME280;13247;47.504;7.382;2024-03-08T03:31:38;96860.00;;;1.78;100.00
21817;BME280;13247;47.504;7.382;2024-03-08T03:34:24;96853.13;;;1.70;100.00
21817;BME280;13247;47.504;7.382;2024-03-08T03:37:09;96854.88;;;1.71;100.00
21817;BME280;13247;47.504;7.382;2024-03-08T03:39:56;96846.38;;;1.38;100.00
21817;BME280;13247;47.504;7.382;2024-03-08T03:42:42;96855.81;;;1.44;100.00
21817;BME280;13247;47.504;7.382;2024-03-08T03:45:27;96849.81;;;1.37;100.00
21817;BME280;13247;47.504;7.382;2024-03-08T03:48:12;96848.97;;;1.43;100.00
21817;BME280;13247;47.504;7.382;2024-03-08T03:50:56;96847.19;;;1.54;100.00
21817;BME280;13247;47.504;7.382;2024-03-08T03:53:41;96841.13;;;1.64;100.00
21817;BME280;13247;47.504;7.382;2024-03-08T03:56:26;96839.28;;;1.80;100.00
21817;BME280;13247;47.504;7.382;2024-03-08T03:59:11;96836.69;;;1.84;100.00
21817;BME280;13247;47.504;7.382;2024-03-08T04:01:56;96839.41;;;1.65;100.00
21817;BME280;13247;47.504;7.382;2024-03-08T04:04:41;96833.34;;;1.67;100.00
21817;BME280;13247;47.504;7.382;2024-03-08T04:07:25;96838.53;;;1.64;100.00
21817;BME280;13247;47.504;7.382;2024-03-08T04:10:10;96838.63;;;1.47;100.00
21817;BME280;13247;47.504;7.382;2024-03-08T04:12:56;96836.06;;;1.35;100.00
21817;BME280;13247;47.504;7.382;2024-03-08T04:15:41;96835.28;;;1.20;100.00
21817;BME280;13247;47.504;7.382;2024-03-08T04:18:28;96835.25;;;1.23;100.00
21817;BME280;13247;47.504;7.382;2024-03-08T04:21:13;96834.28;;;1.48;100.00
21817;BME280;13247;47.504;7.382;2024-03-08T04:23:57;96829.09;;;1.55;100.00
21817;BME280;13247;47.504;7.382;2024-03-08T04:26:42;96833.47;;;1.43;100.00
21817;BME280;13247;47.504;7.382;2024-03-08T04:29:28;96839.50;;;1.37;100.00
21817;BME280;13247;47.504;7.382;2024-03-08T04:32:13;96842.91;;;1.44;100.00
21817;BME280;13247;47.504;7.382;2024-03-08T04:34:58;96842.97;;;1.27;100.00
21817;BME280;13247;47.504;7.382;2024-03-08T04:37:42;96834.34;;;1.36;100.00
21817;BME280;13247;47.504;7.382;2024-03-08T04:40:27;96833.50;;;1.34;100.00
21817;BME280;13247;47.504;7.382;2024-03-08T04:43:12;96832.75;;;1.03;100.00
21817;BME280;13247;47.504;7.382;2024-03-08T04:45:57;96835.31;;;1.03;100.00
21817;BME280;13247;47.504;7.382;2024-03-08T04:48:41;96824.16;;;0.88;100.00
21817;BME280;13247;47.504;7.382;2024-03-08T04:51:27;96822.41;;;0.96;100.00
21817;BME280;13247;47.504;7.382;2024-03-08T04:54:12;96830.16;;;1.05;100.00
21817;BME280;13247;47.504;7.382;2024-03-08T04:56:57;96818.06;;;1.13;100.00
21817;BME280;13247;47.504;7.382;2024-03-08T04:59:41;96820.63;;;1.19;100.00
21817;BME280;13247;47.504;7.382;2024-03-08T05:02:26;96818.03;;;1.22;100.00
21817;BME280;13247;47.504;7.382;2024-03-08T05:05:11;96815.47;;;1.20;100.00
21817;BME280;13247;47.504;7.382;2024-03-08T05:07:59;96822.28;;;1.33;100.00
21817;BME280;13247;47.504;7.382;2024-03-08T05:10:45;96822.28;;;1.33;100.00
21817;BME280;13247;47.504;7.382;2024-03-08T05:13:31;96822.28;;;1.41;100.00
21817;BME280;13247;47.504;7.382;2024-03-08T05:16:16;96817.13;;;1.33;100.00
21817;BME280;13247;47.504;7.382;2024-03-08T05:19:00;96817.97;;;1.38;100.00
21817;BME280;13247;47.504;7.382;2024-03-08T05:21:45;96817.16;;;1.27;100.00
21817;BME280;13247;47.504;7.382;2024-03-08T05:24:30;96824.03;;;1.30;100.00
21817;BME280;13247;47.504;7.382;2024-03-08T05:27:15;96824.06;;;1.19;100.00
21817;BME280;13247;47.504;7.382;2024-03-08T05:30:01;96829.16;;;1.36;100.00
21817;BME280;13247;47.504;7.382;2024-03-08T05:32:45;96822.34;;;1.20;100.00
21817;BME280;13247;47.504;7.382;2024-03-08T05:35:30;96816.38;;;1.09;100.00
21817;BME280;13247;47.504;7.382;2024-03-08T05:38:15;96819.81;;;1.02;100.00
21817;BME280;13247;47.504;7.382;2024-03-08T05:40:59;96820.69;;;1.01;100.00
21817;BME280;13247;47.504;7.382;2024-03-08T05:43:45;96818.97;;;0.97;100.00
21817;BME280;13247;47.504;7.382;2024-03-08T05:46:30;96814.69;;;0.99;100.00
21817;BME280;13247;47.504;7.382;2024-03-08T05:49:15;96806.06;;;1.03;100.00
21817;BME280;13247;47.504;7.382;2024-03-08T05:52:00;96806.03;;;1.13;100.00
21817;BME280;13247;47.504;7.382;2024-03-08T05:54:45;96798.31;;;1.04;100.00
21817;BME280;13247;47.504;7.382;2024-03-08T05:57:30;96791.41;;;1.06;100.00
21817;BME280;13247;47.504;7.382;2024-03-08T06:00:15;96783.66;;;1.14;100.00
21817;BME280;13247;47.504;7.382;2024-03-08T06:03:00;96776.72;;;1.19;100.00
21817;BME280;13247;47.504;7.382;2024-03-08T06:05:44;96780.97;;;1.36;100.00
21817;BME280;13247;47.504;7.382;2024-03-08T06:08:29;96768.06;;;1.36;100.00
21817;BME280;13247;47.504;7.382;2024-03-08T06:11:15;96770.59;;;1.39;100.00
21817;BME280;13247;47.504;7.382;2024-03-08T06:14:02;96773.22;;;1.41;100.00
21817;BME280;13247;47.504;7.382;2024-03-08T06:16:47;96774.78;;;1.66;100.00
21817;BME280;13247;47.504;7.382;2024-03-08T06:19:34;96768.78;;;1.63;100.00
21817;BME280;13247;47.504;7.382;2024-03-08T06:22:21;96773.94;;;1.64;100.00
21817;BME280;13247;47.504;7.382;2024-03-08T06:25:06;96766.94;;;1.78;100.00
21817;BME280;13247;47.504;7.382;2024-03-08T06:27:51;96779.88;;;1.81;100.00
21817;BME280;13247;47.504;7.382;2024-03-08T06:30:37;96781.31;;;2.21;100.00
21817;BME280;13247;47.504;7.382;2024-03-08T06:33:22;96777.16;;;1.98;100.00
21817;BME280;13247;47.504;7.382;2024-03-08T06:36:06;96785.13;;;1.66;100.00
21817;BME280;13247;47.504;7.382;2024-03-08T06:38:51;96791.41;;;1.14;100.00
21817;BME280;13247;47.504;7.382;2024-03-08T06:41:39;96804.38;;;0.93;100.00
21817;BME280;13247;47.504;7.382;2024-03-08T06:44:24;96805.25;;;0.90;100.00
21817;BME280;13247;47.504;7.382;2024-03-08T06:47:09;96807.72;;;1.19;100.00
21817;BME280;13247;47.504;7.382;2024-03-08T06:49:54;96809.44;;;1.21;100.00
21817;BME280;13247;47.504;7.382;2024-03-08T06:52:39;96811.97;;;1.36;100.00
21817;BME280;13247;47.504;7.382;2024-03-08T06:55:24;96812.78;;;1.43;100.00
21817;BME280;13247;47.504;7.382;2024-03-08T06:58:09;96819.66;;;1.47;100.00
21817;BME280;13247;47.504;7.382;2024-03-08T07:00:55;96810.13;;;1.56;100.00
21817;BME280;13247;47.504;7.382;2024-03-08T07:03:43;96810.09;;;1.69;100.00
21817;BME280;13247;47.504;7.382;2024-03-08T07:06:29;96809.16;;;1.80;100.00
21817;BME280;13247;47.504;7.382;2024-03-08T07:09:14;96803.91;;;1.92;100.00
21817;BME280;13247;47.504;7.382;2024-03-08T07:12:01;96803.13;;;1.78;100.00
21817;BME280;13247;47.504;7.382;2024-03-08T07:14:46;96794.38;;;2.02;100.00
21817;BME280;13247;47.504;7.382;2024-03-08T07:17:30;96797.69;;;2.19;100.00
21817;BME280;13247;47.504;7.382;2024-03-08T07:20:15;96792.53;;;2.16;100.00
21817;BME280;13247;47.504;7.382;2024-03-08T07:23:03;96783.78;;;2.36;100.00
21817;BME280;13247;47.504;7.382;2024-03-08T07:25:49;96775.75;;;2.64;100.00
21817;BME280;13247;47.504;7.382;2024-03-08T07:28:33;96778.47;;;2.50;100.00
21817;BME280;13247;47.504;7.382;2024-03-08T07:31:18;96768.06;;;2.58;100.00
21817;BME280;13247;47.504;7.382;2024-03-08T07:34:02;96772.91;;;2.88;100.00
21817;BME280;13247;47.504;7.382;2024-03-08T07:36:47;96770.31;;;2.88;100.00
21817;BME280;13247;47.504;7.382;2024-03-08T07:39:34;96771.88;;;3.04;100.00
21817;BME280;13247;47.504;7.382;2024-03-08T07:42:19;96766.56;;;3.16;100.00
21817;BME280;13247;47.504;7.382;2024-03-08T07:45:04;96763.56;;;3.48;100.00
21817;BME280;13247;47.504;7.382;2024-03-08T07:47:51;96758.25;;;3.57;100.00
21817;BME280;13247;47.504;7.382;2024-03-08T07:50:38;96756.38;;;3.66;100.00
21817;BME280;13247;47.504;7.382;2024-03-08T07:53:23;96752.47;;;3.97;100.00
21817;BME280;13247;47.504;7.382;2024-03-08T07:56:11;96756.81;;;3.95;100.00
21817;BME280;13247;47.504;7.382;2024-03-08T07:58:57;96752.22;;;4.14;100.00
21817;BME280;13247;47.504;7.382;2024-03-08T08:01:42;96757.31;;;4.19;100.00
21817;BME280;13247;47.504;7.382;2024-03-08T08:04:28;96743.81;;;4.50;100.00
21817;BME280;13247;47.504;7.382;2024-03-08T08:07:13;96743.59;;;4.64;100.00
21817;BME280;13247;47.504;7.382;2024-03-08T08:09:59;96741.03;;;4.61;100.00
21817;BME280;13247;47.504;7.382;2024-03-08T08:12:44;96736.84;;;4.54;100.00
21817;BME280;13247;47.504;7.382;2024-03-08T08:15:31;96736.50;;;4.72;100.00
21817;BME280;13247;47.504;7.382;2024-03-08T08:18:15;96731.91;;;4.88;100.00
21817;BME280;13247;47.504;7.382;2024-03-08T08:21:00;96734.44;;;4.91;100.00
21817;BME280;13247;47.504;7.382;2024-03-08T08:23:44;96729.84;;;5.03;100.00
21817;BME280;13247;47.504;7.382;2024-03-08T08:26:30;96725.78;;;5.33;100.00
21817;BME280;13247;47.504;7.382;2024-03-08T08:29:15;96719.56;;;5.40;100.00
21817;BME280;13247;47.504;7.382;2024-03-08T08:32:00;96722.03;;;5.46;100.00
21817;BME280;13247;47.504;7.382;2024-03-08T08:34:45;96723.72;;;5.48;100.00
21817;BME280;13247;47.504;7.382;2024-03-08T08:37:30;96722.44;;;5.68;100.00
21817;BME280;13247;47.504;7.382;2024-03-08T08:40:16;96717.16;;;5.71;100.00
21817;BME280;13247;47.504;7.382;2024-03-08T08:43:02;96706.69;;;5.74;100.00
21817;BME280;13247;47.504;7.382;2024-03-08T08:45:50;96704.97;;;5.73;100.00
21817;BME280;13247;47.504;7.382;2024-03-08T08:48:39;96710.25;;;5.70;100.00
21817;BME280;13247;47.504;7.382;2024-03-08T08:51:29;96699.13;;;5.63;100.00
21817;BME280;13247;47.504;7.382;2024-03-08T08:54:13;96697.03;;;5.79;100.00
21817;BME280;13247;47.504;7.382;2024-03-08T08:57:01;96697.13;;;5.76;100.00
21817;BME280;13247;47.504;7.382;2024-03-08T08:59:51;96697.00;;;5.80;100.00
21817;BME280;13247;47.504;7.382;2024-03-08T09:02:36;96694.34;;;5.85;100.00
21817;BME280;13247;47.504;7.382;2024-03-08T09:05:22;96685.84;;;5.75;100.00
21817;BME280;13247;47.504;7.382;2024-03-08T09:08:08;96688.13;;;5.90;100.00
21817;BME280;13247;47.504;7.382;2024-03-08T09:10:53;96686.19;;;5.98;100.00
21817;BME280;13247;47.504;7.382;2024-03-08T09:13:37;96685.88;;;6.12;100.00
21817;BME280;13247;47.504;7.382;2024-03-08T09:16:22;96672.56;;;6.24;100.00
21817;BME280;13247;47.504;7.382;2024-03-08T09:19:07;96676.16;;;6.52;100.00
21817;BME280;13247;47.504;7.382;2024-03-08T09:21:52;96662.59;;;6.06;100.00
21817;BME280;13247;47.504;7.382;2024-03-08T09:24:37;96666.84;;;6.42;100.00
21817;BME280;13247;47.504;7.382;2024-03-08T09:27:21;96660.38;;;6.58;100.00
21817;BME280;13247;47.504;7.382;2024-03-08T09:30:06;96654.59;;;6.47;100.00
21817;BME280;13247;47.504;7.382;2024-03-08T09:32:52;96646.75;;;6.15;100.00
21817;BME280;13247;47.504;7.382;2024-03-08T09:35:36;96643.22;;;6.17;100.00
21817;BME280;13247;47.504;7.382;2024-03-08T09:38:21;96643.09;;;6.22;100.00
21817;BME280;13247;47.504;7.382;2024-03-08T09:41:06;96646.66;;;6.52;100.00
21817;BME280;13247;47.504;7.382;2024-03-08T09:43:51;96648.22;;;6.89;100.00
21817;BME280;13247;47.504;7.382;2024-03-08T09:46:36;96641.13;;;6.94;100.00
21817;BME280;13247;47.504;7.382;2024-03-08T09:49:22;96641.44;;;6.84;100.00
21817;BME280;13247;47.504;7.382;2024-03-08T09:52:07;96636.13;;;6.87;100.00
21817;BME280;13247;47.504;7.382;2024-03-08T09:54:53;96630.09;;;6.85;100.00
21817;BME280;13247;47.504;7.382;2024-03-08T09:57:37;96622.09;;;7.22;100.00
21817;BME280;13247;47.504;7.382;2024-03-08T10:00:22;96628.44;;;6.82;100.00
21817;BME280;13247;47.504;7.382;2024-03-08T10:03:08;96618.22;;;6.75;100.00
21817;BME280;13247;47.504;7.382;2024-03-08T10:05:54;96627.13;;;6.98;100.00
21817;BME280;13247;47.504;7.382;2024-03-08T10:08:40;96611.47;;;6.98;100.00
21817;BME280;13247;47.504;7.382;2024-03-08T10:11:25;96600.31;;;7.23;100.00
21817;BME280;13247;47.504;7.382;2024-03-08T10:14:11;96596.28;;;7.68;100.00
21817;BME280;13247;47.504;7.382;2024-03-08T10:16:57;96582.97;;;7.77;100.00
21817;BME280;13247;47.504;7.382;2024-03-08T10:19:51;96587.94;;;7.57;100.00
21817;BME280;13247;47.504;7.382;2024-03-08T10:22:36;96582.91;;;7.78;100.00
21817;BME280;13247;47.504;7.382;2024-03-08T10:25:22;96579.22;;;7.84;100.00
21817;BME280;13247;47.504;7.382;2024-03-08T10:28:09;96576.59;;;7.85;100.00
21817;BME280;13247;47.504;7.382;2024-03-08T10:30:55;96569.66;;;7.84;100.00
21817;BME280;13247;47.504;7.382;2024-03-08T10:33:40;96569.75;;;7.81;100.00
21817;BME280;13247;47.504;7.382;2024-03-08T10:36:26;96569.75;;;7.81;100.00
21817;BME280;13247;47.504;7.382;2024-03-08T10:39:35;96572.03;;;8.17;100.00
21817;BME280;13247;47.504;7.382;2024-03-08T10:42:23;96556.59;;;8.11;100.00
21817;BME280;13247;47.504;7.382;2024-03-08T10:45:19;96553.06;;;8.12;100.00
21817;BME280;13247;47.504;7.382;2024-03-08T10:51:04;96553.59;;;8.70;100.00
21817;BME280;13247;47.504;7.382;2024-03-08T10:53:49;96538.91;;;8.43;100.00
21817;BME280;13247;47.504;7.382;2024-03-08T10:56:35;96538.81;;;8.46;100.00
21817;BME280;13247;47.504;7.382;2024-03-08T10:59:21;96534.56;;;8.90;100.00
21817;BME280;13247;47.504;7.382;2024-03-08T11:02:07;96528.59;;;8.63;100.00
21817;BME280;13247;47.504;7.382;2024-03-08T11:04:52;96531.06;;;8.43;100.00
21817;BME280;13247;47.504;7.382;2024-03-08T11:07:43;96519.38;;;8.53;100.00
21817;BME280;13247;47.504;7.382;2024-03-08T11:10:29;96519.38;;;8.53;100.00
21817;BME280;13247;47.504;7.382;2024-03-08T11:13:33;96512.13;;;8.61;100.00
21817;BME280;13247;47.504;7.382;2024-03-08T11:19:23;96489.22;;;9.13;100.00
21817;BME280;13247;47.504;7.382;2024-03-08T11:22:27;96486.06;;;9.48;100.00
21817;BME280;13247;47.504;7.382;2024-03-08T11:25:38;96478.50;;;9.19;100.00
21817;BME280;13247;47.504;7.382;2024-03-08T11:28:31;96489.22;;;9.13;100.00
21817;BME280;13247;47.504;7.382;2024-03-08T11:31:24;96481.69;;;9.27;100.00
21817;BME280;13247;47.504;7.382;2024-03-08T11:34:16;96477.53;;;9.43;100.00
21817;BME280;13247;47.504;7.382;2024-03-08T11:37:04;96466.72;;;9.72;100.00
21817;BME280;13247;47.504;7.382;2024-03-08T11:39:56;96467.06;;;9.21;100.00
21817;BME280;13247;47.504;7.382;2024-03-08T11:42:46;96470.25;;;9.08;100.00
21817;BME280;13247;47.504;7.382;2024-03-08T11:45:32;96472.81;;;9.31;100.00
21817;BME280;13247;47.504;7.382;2024-03-08T11:48:17;96451.66;;;9.57;100.00
21817;BME280;13247;47.504;7.382;2024-03-08T11:51:01;96448.25;;;9.95;100.00
21817;BME280;13247;47.504;7.382;2024-03-08T11:53:49;96431.44;;;9.61;100.00
21817;BME280;13247;47.504;7.382;2024-03-08T11:56:34;96429.94;;;9.55;100.00
21817;BME280;13247;47.504;7.382;2024-03-08T11:59:20;96411.41;;;9.60;100.00
21817;BME280;13247;47.504;7.382;2024-03-08T12:02:05;96406.88;;;10.03;100.00
21817;BME280;13247;47.504;7.382;2024-03-08T12:05:00;96399.44;;;10.14;100.00
21817;BME280;13247;47.504;7.382;2024-03-08T12:07:57;96395.09;;;9.93;100.00
21817;BME280;13247;47.504;7.382;2024-03-08T12:10:43;96403.09;;;9.70;100.00
21817;BME280;13247;47.504;7.382;2024-03-08T12:13:29;96390.16;;;9.87;100.00
21817;BME280;13247;47.504;7.382;2024-03-08T12:16:15;96390.97;;;10.28;100.00
21817;BME280;13247;47.504;7.382;2024-03-08T12:19:02;96388.97;;;10.52;100.00
21817;BME280;13247;47.504;7.382;2024-03-08T12:21:48;96381.81;;;10.74;100.00
21817;BME280;13247;47.504;7.382;2024-03-08T12:24:33;96378.44;;;10.35;100.00
21817;BME280;13247;47.504;7.382;2024-03-08T12:27:18;96374.13;;;9.75;100.00
21817;BME280;13247;47.504;7.382;2024-03-08T12:30:24;96373.84;;;10.01;100.00
21817;BME280;13247;47.504;7.382;2024-03-08T12:33:11;96362.53;;;9.80;100.00
21817;BME280;13247;47.504;7.382;2024-03-08T12:35:57;96363.22;;;10.24;100.00
21817;BME280;13247;47.504;7.382;2024-03-08T12:38:49;96358.63;;;10.83;100.00
21817;BME280;13247;47.504;7.382;2024-03-08T12:41:39;96354.41;;;10.44;100.00
21817;BME280;13247;47.504;7.382;2024-03-08T12:44:27;96357.78;;;10.08;100.00
21817;BME280;13247;47.504;7.382;2024-03-08T12:47:13;96349.13;;;10.06;100.00
21817;BME280;13247;47.504;7.382;2024-03-08T12:49:57;96339.69;;;10.60;100.00
21817;BME280;13247;47.504;7.382;2024-03-08T12:52:42;96330.56;;;10.85;100.00
21817;BME280;13247;47.504;7.382;2024-03-08T12:55:27;96330.06;;;10.23;100.00
21817;BME280;13247;47.504;7.382;2024-03-08T12:58:12;96326.03;;;10.35;100.00
21817;BME280;13247;47.504;7.382;2024-03-08T13:00:56;96320.59;;;10.92;100.00
21817;BME280;13247;47.504;7.382;2024-03-08T13:03:41;96307.19;;;11.15;100.00
21817;BME280;13247;47.504;7.382;2024-03-08T13:06:28;96289.59;;;11.68;100.00
21817;BME280;13247;47.504;7.382;2024-03-08T13:09:15;96279.72;;;11.39;100.00
21817;BME280;13247;47.504;7.382;2024-03-08T13:11:59;96278.53;;;11.79;100.00
21817;BME280;13247;47.504;7.382;2024-03-08T13:14:45;96279.25;;;11.48;100.00
21817;BME280;13247;47.504;7.382;2024-03-08T13:17:30;96285.66;;;11.26;100.00
21817;BME280;13247;47.504;7.382;2024-03-08T13:20:15;96279.41;;;11.11;100.00
21817;BME280;13247;47.504;7.382;2024-03-08T13:23:04;96284.63;;;11.13;100.00
21817;BME280;13247;47.504;7.382;2024-03-08T13:25:49;96286.28;;;11.14;100.00
21817;BME280;13247;47.504;7.382;2024-03-08T13:28:34;96276.66;;;11.31;100.00
21817;BME280;13247;47.504;7.382;2024-03-08T13:31:22;96265.06;;;11.52;100.00
21817;BME280;13247;47.504;7.382;2024-03-08T13:34:07;96262.69;;;11.80;100.00
21817;BME280;13247;47.504;7.382;2024-03-08T13:36:52;96257.25;;;11.51;100.00
21817;BME280;13247;47.504;7.382;2024-03-08T13:39:39;96253.06;;;11.47;100.00
21817;BME280;13247;47.504;7.382;2024-03-08T13:42:28;96260.75;;;12.00;100.00
21817;BME280;13247;47.504;7.382;2024-03-08T13:45:13;96252.66;;;12.20;100.00
21817;BME280;13247;47.504;7.382;2024-03-08T13:47:59;96249.44;;;12.15;100.00
21817;BME280;13247;47.504;7.382;2024-03-08T13:50:44;96246.78;;;11.83;100.00
21817;BME280;13247;47.504;7.382;2024-03-08T13:53:28;96234.19;;;12.37;100.00
21817;BME280;13247;47.504;7.382;2024-03-08T13:56:14;96232.13;;;11.95;100.00
21817;BME280;13247;47.504;7.382;2024-03-08T13:58:59;96227.19;;;11.89;100.00
21817;BME280;13247;47.504;7.382;2024-03-08T14:01:44;96225.34;;;11.58;100.00
21817;BME280;13247;47.504;7.382;2024-03-08T14:04:29;96231.44;;;11.76;100.00
21817;BME280;13247;47.504;7.382;2024-03-08T14:07:13;96234.13;;;11.57;100.00
21817;BME280;13247;47.504;7.382;2024-03-08T14:09:58;96224.25;;;11.62;100.00
21817;BME280;13247;47.504;7.382;2024-03-08T14:12:43;96217.03;;;11.67;100.00
21817;BME280;13247;47.504;7.382;2024-03-08T14:15:28;96210.50;;;11.25;100.00
21817;BME280;13247;47.504;7.382;2024-03-08T14:18:14;96210.59;;;11.23;100.00
21817;BME280;13247;47.504;7.382;2024-03-08T14:21:00;96205.06;;;11.45;100.00
21817;BME280;13247;47.504;7.382;2024-03-08T14:23:44;96195.66;;;11.89;100.00
21817;BME280;13247;47.504;7.382;2024-03-08T14:26:29;96194.59;;;11.60;100.00
21817;BME280;13247;47.504;7.382;2024-03-08T14:29:13;96187.56;;;11.78;100.00
21817;BME280;13247;47.504;7.382;2024-03-08T14:31:59;96188.06;;;12.16;100.00
21817;BME280;13247;47.504;7.382;2024-03-08T14:34:44;96179.81;;;11.75;100.00
21817;BME280;13247;47.504;7.382;2024-03-08T14:37:28;96176.94;;;11.31;100.00
21817;BME280;13247;47.504;7.382;2024-03-08T14:40:13;96175.47;;;11.26;100.00
21817;BME280;13247;47.504;7.382;2024-03-08T14:42:59;96169.16;;;11.45;100.00